Airfield :
LOGIN :

Register | Disclaimer

   EN    FR    IT 

 










Legend :    VFR   Marginal VFR   IFR   Intensive IFR   Very Intensive IFR
Visi :
Ceiling :
>= 8 km
>= 3000ft
5 to 8 km
1000 to 3000 ft
1500m to 5 km
500 to 1000 ft
800 to 1500m
200 to 500 ft
< 800m
< 200 ft
Symbols :   Thunderstorms  Fog  Heavy snow  Heavy precipitations  Wind > 20 kt
SIGMETs :     Misc.  Thunderstorms  Icing  Turbulence  Mountain Waves  Volcanic Ashes






- Airport Elevation : 1465 ft


LSMP - Payerne

CURRENT METAR :
  • 280620Z 23022KT 9999 -SHRA OVC038 09/04 Q1004 RMK BLU

EXPIRED METARs :
  • 280550Z 24010KT 9999 -SHRA FEW022 BKN054 BKN080 07/05 Q1004 RESHRA RMK BLU
  • 280520Z 25018G30KT 8000 +RA FEW014 SCT018 OVC021 06/04 Q1005 RMK WHT
  • 280450Z AUTO 26017KT 220V280 8000NDV +SHRA SCT013 BKN020 OVC034 07/05 Q1005 RMK
  • 280420Z AUTO 26016KT 9999NDV -SHRA BKN021 OVC034 07/05 Q1005 RESHRA RMK
  • 280350Z AUTO 23016KT 9999NDV -SHRA FEW020 BKN034 BKN084 08/05 Q1005 RMK

Expired Forecast.



MET'MAP, your aeronautical weather chart ! - Copyright ORBIFLY December 2007 - Disclaimer

ORBIFLY MET'MAP TEAM :

Programming & Development : Alexandra Zaïnal
Concept & original design : Baudouin d'Aumeries
Assistance for programming : Marc-Olivier Méhu
Technical & hardware support : Manuel Goepfert

Contact : metmap@orbifly.com




SOURCES & CREDITS :

   NOAA